Time;durP1;ratioP1;P1;durP2;ratioP2;P2;SDS_P1;SDS_P2;PMS_P1;PMS_P2;Temp;Humidity;BMP_temperature;BMP_pressure;BME280_temperature;BME280_humidity;BME280_pressure;Samples;Min_cycle;Max_cycle;Signal;HPM_P1;HPM_P2
2020/12/23 00:00:50;;;;;;;1.83;1.10;;;;;;;12.37;100.00;96630.16;4935185;28;20517;-39
2020/12/23 00:03:17;;;;;;;5.70;2.90;;;;;;;12.40;100.00;96629.97;4936325;28;20543;-39
2020/12/23 00:05:44;;;;;;;1.37;0.93;;;;;;;12.47;100.00;96631.22;4938412;28;20454;-39
2020/12/23 00:08:11;;;;;;;7.40;2.50;;;;;;;12.50;100.00;96636.19;4935968;28;20503;-39
2020/12/23 00:10:39;;;;;;;3.40;2.43;;;;;;;12.50;100.00;96633.59;4939159;28;20478;-40
2020/12/23 00:13:07;;;;;;;3.00;1.70;;;;;;;12.51;100.00;96621.38;4936417;28;21028;-39
2020/12/23 00:15:34;;;;;;;6.97;3.43;;;;;;;12.51;100.00;96614.38;4938080;28;20880;-39
2020/12/23 00:18:01;;;;;;;1.40;0.93;;;;;;;12.61;100.00;96617.19;4938660;28;20474;-40
2020/12/23 00:20:28;;;;;;;8.13;3.87;;;;;;;12.67;100.00;96617.59;4936673;28;20878;-39
2020/12/23 00:22:54;;;;;;;1.50;0.80;;;;;;;12.72;100.00;96620.72;4937379;28;20840;-39
2020/12/23 00:25:21;;;;;;;1.63;1.00;;;;;;;12.69;100.00;96616.53;4933539;28;20785;-39
2020/12/23 00:27:49;;;;;;;1.00;0.90;;;;;;;12.70;100.00;96614.78;4935128;28;20980;-39
2020/12/23 00:30:17;;;;;;;1.03;0.70;;;;;;;12.73;100.00;96619.78;4933862;28;21292;-39
2020/12/23 00:32:44;;;;;;;2.90;1.00;;;;;;;12.72;100.00;96618.09;4938045;28;21233;-39
2020/12/23 00:35:10;;;;;;;1.03;0.73;;;;;;;12.26;100.00;96543.94;4933999;28;20557;-39
2020/12/23 00:37:37;;;;;;;1.70;1.00;;;;;;;12.75;100.00;96625.75;4936248;28;20859;-39
2020/12/23 00:40:04;;;;;;;1.40;0.90;;;;;;;12.72;100.00;96620.72;4935427;28;20595;-39
2020/12/23 00:42:31;;;;;;;1.70;0.80;;;;;;;12.70;100.00;96625.22;4935994;28;20504;-39
2020/12/23 00:44:59;;;;;;;1.50;0.90;;;;;;;12.74;100.00;96624.91;4938247;28;21042;-40
2020/12/23 00:47:26;;;;;;;1.37;1.03;;;;;;;12.71;100.00;96619.06;4939037;28;20836;-38
2020/12/23 00:49:53;;;;;;;1.73;0.70;;;;;;;12.69;100.00;96621.75;4937688;28;20585;-39
2020/12/23 00:52:19;;;;;;;0.80;0.80;;;;;;;12.70;100.00;96622.59;4938673;28;20449;-39
2020/12/23 00:54:46;;;;;;;0.80;0.70;;;;;;;12.68;100.00;96612.25;4937021;28;20549;-40
2020/12/23 00:57:13;;;;;;;2.17;0.90;;;;;;;12.61;100.00;96610.19;4931842;28;20853;-39
2020/12/23 00:59:40;;;;;;;1.20;0.80;;;;;;;12.65;100.00;96614.25;4934002;28;20819;-39
2020/12/23 01:02:08;;;;;;;1.47;0.90;;;;;;;12.67;100.00;96611.53;4935020;28;21113;-39
2020/12/23 01:04:35;;;;;;;1.53;0.60;;;;;;;12.63;100.00;96615.28;4935510;28;21237;-39
2020/12/23 01:07:02;;;;;;;1.17;0.80;;;;;;;12.62;100.00;96619.69;4939050;28;20454;-38
2020/12/23 01:09:28;;;;;;;0.80;0.70;;;;;;;12.68;100.00;96618.44;4937927;28;20996;-39
2020/12/23 01:11:55;;;;;;;1.57;0.70;;;;;;;12.63;100.00;96610.91;4935652;28;20469;-38
2020/12/23 01:14:22;;;;;;;1.20;0.80;;;;;;;12.63;100.00;96616.97;4938460;28;20512;-38
2020/12/23 01:16:49;;;;;;;1.00;0.70;;;;;;;12.64;100.00;96623.03;4938356;28;20541;-38
2020/12/23 01:19:17;;;;;;;2.30;1.10;;;;;;;12.67;100.00;96617.59;4941508;28;20868;-38
2020/12/23 01:21:44;;;;;;;2.33;0.67;;;;;;;12.68;100.00;96611.44;4941455;28;20997;-38
2020/12/23 01:24:11;;;;;;;1.30;0.77;;;;;;;12.69;100.00;96615.72;4940028;28;20555;-38
2020/12/23 01:26:39;;;;;;;4.13;1.00;;;;;;;12.67;100.00;96612.34;4938625;28;20880;-38
2020/12/23 01:29:06;;;;;;;0.90;0.60;;;;;;;12.63;100.00;96620.50;4938130;28;20528;-38
2020/12/23 01:31:33;;;;;;;3.00;0.80;;;;;;;12.65;100.00;96613.44;4936595;28;21083;-41
2020/12/23 01:34:04;;;;;;;0.90;0.70;;;;;;;12.62;100.00;96619.69;4940736;28;20972;-39
2020/12/23 01:36:32;;;;;;;1.00;0.90;;;;;;;12.68;100.00;96618.44;4941473;28;20852;-38
2020/12/23 01:38:58;;;;;;;0.90;0.70;;;;;;;12.70;99.48;96622.59;4941553;28;20570;-38
2020/12/23 01:41:25;;;;;;;1.00;0.60;;;;;;;12.57;99.79;96606.13;4943208;28;20939;-38
2020/12/23 01:43:53;;;;;;;1.30;0.60;;;;;;;12.71;99.54;96619.06;4937659;28;20943;-38
2020/12/23 01:46:30;;;;;;;0.90;0.67;;;;;;;12.71;99.39;96619.06;4936724;28;20995;-39
2020/12/23 01:48:58;;;;;;;3.87;0.70;;;;;;;12.74;99.50;96617.06;4939446;28;21034;-38
2020/12/23 01:51:25;;;;;;;5.60;0.70;;;;;;;12.77;99.02;96616.03;4942608;28;20481;-38
2020/12/23 01:53:53;;;;;;;2.70;0.80;;;;;;;12.81;98.80;96609.63;4940159;28;20916;-39
2020/12/23 01:56:21;;;;;;;1.67;0.70;;;;;;;12.82;99.01;96600.84;4936673;28;20453;-38
2020/12/23 01:58:48;;;;;;;6.10;0.83;;;;;;;12.83;98.73;96612.97;4937187;28;20478;-38
2020/12/23 02:01:20;;;;;;;3.10;0.77;;;;;;;12.77;99.33;96613.41;4940380;28;20805;-38
2020/12/23 02:03:48;;;;;;;1.17;0.70;;;;;;;12.76;99.12;96609.13;4939219;28;20470;-38
2020/12/23 02:06:16;;;;;;;1.20;0.70;;;;;;;12.82;99.10;96595.59;4942947;28;20882;-38
2020/12/23 02:08:44;;;;;;;7.40;0.87;;;;;;;12.76;99.08;96609.13;4940490;28;20557;-38
2020/12/23 02:11:13;;;;;;;0.70;0.50;;;;;;;12.56;99.05;96557.44;4937628;28;20446;-38
2020/12/23 02:13:41;;;;;;;0.80;0.60;;;;;;;12.79;98.96;96601.06;4938039;28;20454;-38
2020/12/23 02:16:08;;;;;;;2.80;0.87;;;;;;;12.81;98.98;96602.63;4944268;28;21000;-38
2020/12/23 02:18:37;;;;;;;1.73;0.80;;;;;;;12.82;99.12;96593.00;4937832;28;20489;-38
2020/12/23 02:21:21;;;;;;;1.47;0.70;;;;;;;12.64;99.05;96570.81;4938746;28;20445;-39
2020/12/23 02:23:49;;;;;;;1.57;0.87;;;;;;;12.76;99.21;96583.00;4937629;28;20495;-39
2020/12/23 02:26:16;;;;;;;1.73;0.77;;;;;;;12.75;99.72;96584.78;4938469;28;20855;-39
2020/12/23 02:28:43;;;;;;;0.93;0.70;;;;;;;12.76;99.79;96585.63;4937912;28;20540;-39
2020/12/23 02:31:09;;;;;;;1.03;0.67;;;;;;;12.73;99.94;96583.22;4938028;28;20741;-39
2020/12/23 02:33:37;;;;;;;2.50;0.70;;;;;;;12.73;100.00;96583.22;4944209;28;21153;-39
2020/12/23 02:36:04;;;;;;;0.90;0.60;;;;;;;12.70;100.00;96578.22;4938576;28;20935;-42
2020/12/23 02:38:31;;;;;;;1.00;0.60;;;;;;;12.65;100.00;96572.47;4939619;28;20875;-39
2020/12/23 02:40:59;;;;;;;1.07;0.67;;;;;;;12.66;100.00;96568.91;4941107;28;20921;-39
2020/12/23 02:43:26;;;;;;;0.77;0.60;;;;;;;12.68;100.00;96559.22;4939549;28;20773;-39
2020/12/23 02:45:53;;;;;;;2.50;0.73;;;;;;;12.64;100.00;96565.59;4943168;28;20871;-40
2020/12/23 02:48:20;;;;;;;3.03;0.83;;;;;;;12.68;100.00;96562.63;4938267;28;20948;-39
2020/12/23 02:50:47;;;;;;;2.40;0.63;;;;;;;12.69;100.00;96558.25;4936493;28;20863;-39
2020/12/23 02:53:14;;;;;;;0.90;0.63;;;;;;;12.69;100.00;96556.47;4939865;28;20836;-39
2020/12/23 02:55:40;;;;;;;4.33;0.90;;;;;;;12.71;100.00;96561.59;4936275;28;20701;-39
2020/12/23 02:58:08;;;;;;;2.00;0.80;;;;;;;12.67;100.00;96547.06;4936692;28;20509;-39
2020/12/23 03:00:35;;;;;;;0.70;0.50;;;;;;;12.67;100.00;96549.69;4940884;28;20533;-39
2020/12/23 03:03:02;;;;;;;5.80;1.10;;;;;;;12.69;99.86;96550.44;4937714;28;20994;-40
2020/12/23 03:05:29;;;;;;;4.70;0.90;;;;;;;12.72;100.00;96546.78;4936071;28;20960;-40
2020/12/23 03:07:56;;;;;;;1.63;0.60;;;;;;;12.70;100.00;96546.88;4936529;28;20542;-39
2020/12/23 03:10:22;;;;;;;0.90;0.63;;;;;;;12.74;100.00;96546.53;4936706;28;21184;-39
2020/12/23 03:12:49;;;;;;;0.70;0.50;;;;;;;12.76;100.00;96546.44;4937124;28;20839;-40
2020/12/23 03:15:17;;;;;;;0.83;0.67;;;;;;;12.70;100.00;96526.78;4940790;28;20477;-39
2020/12/23 03:17:44;;;;;;;3.33;0.70;;;;;;;12.77;99.88;96529.81;4940310;28;20490;-39
2020/12/23 03:20:11;;;;;;;1.17;0.70;;;;;;;12.77;99.57;96535.03;4937932;28;20557;-39
2020/12/23 03:22:37;;;;;;;1.00;0.70;;;;;;;12.72;99.52;96537.13;4940706;28;20558;-39
2020/12/23 03:25:04;;;;;;;0.97;0.70;;;;;;;12.68;99.94;96535.72;4937041;28;20611;-39
2020/12/23 03:27:31;;;;;;;3.07;0.60;;;;;;;12.68;99.92;96524.41;4937871;28;21087;-39
2020/12/23 03:29:58;;;;;;;2.13;0.67;;;;;;;12.63;99.93;96521.28;4936948;28;20475;-39
2020/12/23 03:32:26;;;;;;;1.23;0.70;;;;;;;12.69;99.77;96527.75;4938233;28;20991;-39
2020/12/23 03:34:52;;;;;;;0.90;0.60;;;;;;;12.67;99.26;96517.53;4938690;28;20470;-39
2020/12/23 03:37:19;;;;;;;1.30;0.70;;;;;;;12.69;98.70;96525.13;4940156;28;20887;-39
2020/12/23 03:39:46;;;;;;;5.43;0.90;;;;;;;12.70;99.00;96521.56;4939027;28;20612;-41
2020/12/23 03:42:13;;;;;;;0.90;0.60;;;;;;;12.72;98.90;96515.44;4938334;28;20941;-39
2020/12/23 03:44:40;;;;;;;2.70;0.60;;;;;;;12.71;98.61;96511.97;4939279;28;20474;-39
2020/12/23 03:47:07;;;;;;;1.10;0.70;;;;;;;12.77;97.86;96524.59;4941329;28;20769;-39
2020/12/23 03:49:34;;;;;;;0.90;0.60;;;;;;;12.79;97.46;96520.94;4935431;28;20575;-39
2020/12/23 03:52:01;;;;;;;0.80;0.60;;;;;;;12.75;97.38;96516.03;4939590;28;20537;-39
2020/12/23 03:54:28;;;;;;;0.80;0.50;;;;;;;12.79;97.08;96518.31;4938156;28;20853;-39
2020/12/23 03:56:54;;;;;;;1.30;0.60;;;;;;;12.87;96.73;96507.31;4934588;28;20978;-39
2020/12/23 03:59:21;;;;;;;0.80;0.70;;;;;;;12.90;95.85;96509.72;4939245;28;20940;-39
2020/12/23 04:01:48;;;;;;;0.80;0.57;;;;;;;12.90;95.94;96520.16;4936191;28;20537;-40
2020/12/23 04:04:15;;;;;;;0.70;0.50;;;;;;;12.62;95.15;96452.56;4934859;28;20472;-43
2020/12/23 04:06:42;;;;;;;1.53;0.70;;;;;;;12.90;95.62;96499.28;4938853;28;20910;-39
2020/12/23 04:09:09;;;;;;;1.97;0.80;;;;;;;12.90;95.30;96497.47;4940941;28;20921;-40
2020/12/23 04:11:36;;;;;;;1.40;0.60;;;;;;;12.95;95.20;96502.38;4937941;28;21159;-39
2020/12/23 04:14:05;;;;;;;0.90;0.60;;;;;;;12.87;95.53;96504.69;4934486;28;20510;-39
2020/12/23 04:16:32;;;;;;;2.70;0.60;;;;;;;12.73;96.54;96489.19;4938324;28;21020;-40
2020/12/23 04:18:58;;;;;;;1.47;0.80;;;;;;;12.86;96.17;96498.66;4938538;28;20494;-39
2020/12/23 04:21:27;;;;;;;0.90;0.60;;;;;;;12.88;95.73;96495.91;4939436;28;20544;-39
2020/12/23 04:23:55;;;;;;;2.33;0.70;;;;;;;12.91;95.98;96500.94;4936577;28;20486;-39
2020/12/23 04:26:21;;;;;;;1.10;0.67;;;;;;;12.87;96.40;96496.84;4933420;28;20528;-45
2020/12/23 04:28:48;;;;;;;0.80;0.60;;;;;;;12.86;96.30;96497.81;4935143;28;20906;-45
2020/12/23 04:31:15;;;;;;;2.50;0.60;;;;;;;12.89;96.24;96489.72;4936517;28;21192;-44
2020/12/23 04:33:42;;;;;;;1.33;0.67;;;;;;;12.89;96.68;96492.34;4939549;28;20553;-45
2020/12/23 04:36:09;;;;;;;1.10;0.70;;;;;;;12.89;96.62;96487.13;4940828;28;20486;-45
2020/12/23 04:38:36;;;;;;;1.50;0.60;;;;;;;12.87;96.85;96474.19;4937353;28;20811;-44
2020/12/23 04:41:04;;;;;;;0.90;0.60;;;;;;;12.83;97.20;96467.50;4943373;28;20900;-44
2020/12/23 04:43:32;;;;;;;1.00;0.70;;;;;;;12.80;98.14;96465.13;4937013;28;20462;-46
2020/12/23 04:45:59;;;;;;;1.20;0.70;;;;;;;12.69;98.74;96459.03;4937835;28;20538;-45
2020/12/23 04:48:27;;;;;;;0.80;0.60;;;;;;;12.63;99.08;96464.69;4938530;28;20584;-45
2020/12/23 04:50:56;;;;;;;1.77;0.90;;;;;;;12.62;99.13;96465.63;4941406;28;20783;-45
2020/12/23 04:53:24;;;;;;;1.27;0.70;;;;;;;12.67;99.54;96463.50;4932760;28;20849;-45
2020/12/23 04:55:51;;;;;;;0.80;0.50;;;;;;;12.66;98.82;96471.47;4931028;28;20473;-45
2020/12/23 04:58:18;;;;;;;1.40;0.70;;;;;;;12.63;99.50;96474.28;4935224;28;20642;-44
2020/12/23 05:00:45;;;;;;;1.47;0.60;;;;;;;12.58;99.17;96469.41;4938386;28;20446;-45
2020/12/23 05:03:12;;;;;;;2.03;0.70;;;;;;;12.62;99.49;96472.63;4940908;28;20921;-44
2020/12/23 05:05:39;;;;;;;0.95;0.60;;;;;;;12.61;99.21;96471.81;4936250;28;20458;-45
2020/12/23 05:08:06;;;;;;;1.00;0.50;;;;;;;12.46;99.85;96478.13;4938965;28;20658;-45
2020/12/23 05:10:33;;;;;;;0.90;0.70;;;;;;;12.54;99.35;96478.41;4931866;28;21054;-45
2020/12/23 05:12:59;;;;;;;4.50;1.13;;;;;;;12.58;99.37;96474.63;4935663;28;20479;-44
2020/12/23 05:15:27;;;;;;;1.00;0.70;;;;;;;12.54;99.38;96454.91;4934400;28;21087;-45
2020/12/23 05:17:54;;;;;;;1.47;0.60;;;;;;;12.67;98.81;96468.72;4933974;28;20981;-44
2020/12/23 05:20:22;;;;;;;1.57;0.80;;;;;;;12.65;98.02;96462.78;4935287;28;20466;-44
2020/12/23 05:22:49;;;;;;;0.80;0.60;;;;;;;12.70;97.94;96463.31;4937621;28;20454;-44
2020/12/23 05:25:18;;;;;;;1.00;0.60;;;;;;;12.59;97.52;96460.63;4934271;28;20558;-44
2020/12/23 05:27:49;;;;;;;0.90;0.77;;;;;;;12.61;97.54;96460.50;4934437;28;20902;-44
2020/12/23 05:30:18;;;;;;;0.93;0.83;;;;;;;12.69;96.93;96466.88;4935308;28;20482;-44
2020/12/23 05:32:47;;;;;;;0.90;0.70;;;;;;;12.72;97.34;96457.97;4937601;28;20474;-44
2020/12/23 05:35:15;;;;;;;2.93;0.70;;;;;;;12.81;97.21;96452.88;4938467;28;20858;-44
2020/12/23 05:37:43;;;;;;;3.17;0.80;;;;;;;12.85;96.60;96459.56;4937988;28;20522;-43
2020/12/23 05:40:10;;;;;;;0.90;0.63;;;;;;;12.76;96.01;96455.03;4938127;28;20988;-44
2020/12/23 05:42:39;;;;;;;0.90;0.70;;;;;;;12.87;96.02;96458.53;4936996;28;20800;-44
2020/12/23 05:45:07;;;;;;;1.00;0.70;;;;;;;12.94;94.81;96451.06;4940120;28;20470;-44
2020/12/23 05:47:36;;;;;;;1.30;0.70;;;;;;;12.94;95.18;96443.22;4932070;28;20937;-49
2020/12/23 05:50:09;;;;;;;1.00;0.70;;;;;;;12.95;95.19;96447.53;4940302;28;21030;-44
2020/12/23 05:52:36;;;;;;;2.87;0.70;;;;;;;12.89;95.20;96447.94;4934205;28;20509;-44
2020/12/23 05:55:14;;;;;;;2.37;0.87;;;;;;;12.95;95.09;96445.75;4935852;28;20987;-44
2020/12/23 05:57:41;;;;;;;1.10;0.80;;;;;;;12.99;94.57;96435.91;4931027;28;20504;-44
2020/12/23 06:00:07;;;;;;;1.00;0.70;;;;;;;13.02;94.20;96441.75;4940787;28;20969;-44
2020/12/23 06:02:46;;;;;;;0.80;0.60;;;;;;;12.95;94.08;96435.31;4939198;28;20446;-44
2020/12/23 06:05:19;;;;;;;0.80;0.60;;;;;;;12.90;94.46;96441.78;4939390;28;20579;-44
2020/12/23 06:07:49;;;;;;;5.90;0.80;;;;;;;12.83;94.71;96430.13;4936339;28;20847;-43
2020/12/23 06:10:22;;;;;;;1.80;0.60;;;;;;;12.62;96.00;96444.75;4940954;28;20969;-44
2020/12/23 06:12:55;;;;;;;1.63;0.70;;;;;;;12.58;96.56;96443.28;4938315;28;20533;-44
2020/12/23 06:15:31;;;;;;;6.30;0.77;;;;;;;12.49;97.52;96433.50;4936109;28;20903;-44
2020/12/23 06:18:00;;;;;;;0.80;0.60;;;;;;;12.42;97.79;96424.44;4937499;28;20490;-44
2020/12/23 06:20:31;;;;;;;2.90;0.90;;;;;;;12.40;97.48;96423.75;4940497;28;20465;-43
2020/12/23 06:22:59;;;;;;;0.90;0.60;;;;;;;12.33;97.32;96413.84;4941046;28;20504;-43
2020/12/23 06:25:31;;;;;;;0.97;0.60;;;;;;;12.34;98.17;96418.94;4936955;28;20570;-44
2020/12/23 06:28:00;;;;;;;3.20;0.80;;;;;;;12.35;97.13;96423.22;4937308;28;20941;-44
2020/12/23 06:30:29;;;;;;;0.70;0.50;;;;;;;12.37;97.16;96410.06;4939204;28;20477;-43
2020/12/23 06:33:01;;;;;;;0.80;0.60;;;;;;;12.40;97.42;96418.53;4942249;28;20482;-43
2020/12/23 06:35:28;;;;;;;0.80;0.50;;;;;;;12.42;96.94;96413.16;4944002;28;20916;-43
2020/12/23 06:37:55;;;;;;;3.17;0.77;;;;;;;12.32;97.12;96418.25;4939195;28;20502;-43
2020/12/23 06:40:22;;;;;;;2.10;0.70;;;;;;;12.35;97.88;96418.00;4934965;28;20817;-43
2020/12/23 06:42:50;;;;;;;0.90;0.80;;;;;;;12.34;98.31;96415.50;4937023;28;20493;-44
2020/12/23 06:45:17;;;;;;;1.40;1.00;;;;;;;12.35;98.48;96410.19;4937817;28;21011;-43
2020/12/23 06:47:44;;;;;;;0.90;0.60;;;;;;;12.31;98.72;96411.34;4937510;28;20457;-44
2020/12/23 06:50:31;;;;;;;0.90;0.63;;;;;;;12.34;98.52;96411.13;4940268;28;21029;-47
2020/12/23 06:52:59;;;;;;;3.40;0.80;;;;;;;12.31;99.00;96406.13;4939009;28;20955;-43
2020/12/23 06:55:46;;;;;;;1.47;0.50;;;;;;;12.36;99.01;96414.44;4938236;28;20512;-43
2020/12/23 07:01:15;;;;;;;0.90;0.60;;;;;;;12.30;98.60;96409.66;4975100;28;20475;-43
2020/12/23 07:03:43;;;;;;;3.20;0.80;;;;;;;12.34;99.12;96413.72;4980439;23;20478;-38
2020/12/23 07:06:30;;;;;;;2.23;0.87;;;;;;;12.33;98.93;96406.84;4942127;28;21180;-38
2020/12/23 07:09:00;;;;;;;1.37;0.90;;;;;;;12.29;98.98;96402.78;4941038;28;20996;-38
2020/12/23 07:11:33;;;;;;;1.40;0.90;;;;;;;12.33;98.99;96396.41;4941200;28;20497;-38
2020/12/23 07:14:00;;;;;;;1.57;0.60;;;;;;;12.33;98.74;96401.63;4937996;28;20520;-38
2020/12/23 07:16:27;;;;;;;1.00;0.60;;;;;;;12.31;98.10;96400.06;4939498;28;20485;-38
2020/12/23 07:18:54;;;;;;;1.43;0.80;;;;;;;12.32;98.34;96402.56;4941481;28;21268;-43
2020/12/23 07:21:25;;;;;;;1.97;0.83;;;;;;;12.34;98.22;96413.72;4941873;28;20883;-39
2020/12/23 07:23:57;;;;;;;1.63;1.00;;;;;;;12.40;98.02;96413.28;4941504;28;20529;-44
2020/12/23 07:26:26;;;;;;;1.50;0.93;;;;;;;12.44;97.83;96414.72;4937867;28;20561;-44
2020/12/23 07:28:53;;;;;;;2.53;0.90;;;;;;;12.42;97.32;96410.56;4937100;28;21236;-44
2020/12/23 07:31:20;;;;;;;1.30;0.80;;;;;;;12.56;97.34;96420.84;4945166;28;21174;-44
2020/12/23 07:33:47;;;;;;;1.23;1.00;;;;;;;12.59;97.38;96424.06;4941610;28;20494;-40
2020/12/23 07:36:14;;;;;;;1.77;1.27;;;;;;;12.54;97.22;96420.13;4940382;28;20497;-44
2020/12/23 07:38:42;;;;;;;2.20;0.80;;;;;;;12.57;96.55;96433.78;4936834;28;20614;-45
2020/12/23 07:41:12;;;;;;;1.07;0.70;;;;;;;12.67;96.04;96424.34;4937392;28;20782;-44
2020/12/23 07:43:40;;;;;;;1.20;0.93;;;;;;;12.71;95.30;96420.56;4945085;28;20839;-44
2020/12/23 07:46:08;;;;;;;1.10;0.70;;;;;;;12.73;95.39;96426.50;4950980;28;20940;-42
2020/12/23 07:48:35;;;;;;;0.80;0.80;;;;;;;12.74;95.07;96425.56;4937691;28;20836;-44
2020/12/23 07:51:01;;;;;;;1.10;0.77;;;;;;;12.74;94.37;96436.00;4943107;28;20504;-39
2020/12/23 07:53:29;;;;;;;1.20;0.90;;;;;;;12.75;94.69;96432.47;4940700;28;20550;-44
2020/12/23 07:55:58;;;;;;;1.73;0.90;;;;;;;12.79;94.12;96431.28;4942605;28;20793;-44
2020/12/23 07:58:25;;;;;;;2.93;0.80;;;;;;;12.81;93.86;96426.78;4941711;28;20478;-44
2020/12/23 08:00:53;;;;;;;1.27;0.80;;;;;;;12.77;94.15;96433.19;4944915;28;20941;-45
2020/12/23 08:03:26;;;;;;;1.23;0.70;;;;;;;12.77;94.55;96425.34;4938376;28;20459;-44
2020/12/23 08:06:06;;;;;;;0.80;0.60;;;;;;;12.73;93.57;96419.50;4940710;28;20937;-39
2020/12/23 08:08:34;;;;;;;3.13;0.90;;;;;;;12.65;94.30;96431.44;4934405;28;20470;-39
2020/12/23 08:11:07;;;;;;;3.13;0.90;;;;;;;12.64;94.05;96424.56;4938810;28;20454;-44
2020/12/23 08:13:35;;;;;;;7.30;0.80;;;;;;;12.61;94.35;96423.97;4934426;28;20673;-49
2020/12/23 08:16:07;;;;;;;1.60;0.90;;;;;;;12.62;94.67;96426.47;4943195;28;20839;-44
2020/12/23 08:18:35;;;;;;;2.90;1.40;;;;;;;12.32;93.78;96389.53;4936974;28;21205;-44
2020/12/23 08:21:09;;;;;;;1.20;0.70;;;;;;;12.54;94.11;96428.81;4940593;28;20512;-44
2020/12/23 08:23:38;;;;;;;8.10;3.40;;;;;;;12.50;93.78;96432.56;4932487;28;20475;-43
2020/12/23 08:26:07;;;;;;;1.47;1.10;;;;;;;12.53;94.05;96429.75;4942955;28;20454;-43
2020/12/23 08:28:36;;;;;;;1.20;0.70;;;;;;;12.51;93.84;96413.34;4933388;28;20474;-44
2020/12/23 08:31:04;;;;;;;1.00;0.60;;;;;;;12.64;93.55;96419.34;4940237;28;21298;-43
2020/12/23 08:33:34;;;;;;;1.20;0.70;;;;;;;12.59;92.54;96395.34;4936678;28;20466;-44
2020/12/23 08:36:03;;;;;;;2.73;0.70;;;;;;;12.73;91.69;96412.63;4936956;28;20929;-44
2020/12/23 08:38:40;;;;;;;1.00;0.70;;;;;;;12.82;91.42;96423.22;4935431;28;20472;-44
2020/12/23 08:41:11;;;;;;;1.77;0.67;;;;;;;12.83;91.02;96414.44;4947066;28;20485;-44
2020/12/23 08:43:44;;;;;;;0.90;0.70;;;;;;;12.86;91.16;96409.84;4936065;28;20468;-40
2020/12/23 08:46:11;;;;;;;1.10;0.60;;;;;;;12.86;91.24;96414.22;4941447;28;20723;-39
2020/12/23 08:48:46;;;;;;;4.37;0.90;;;;;;;12.89;91.01;96419.19;4942583;28;20922;-41
2020/12/23 08:51:20;;;;;;;1.00;0.80;;;;;;;12.55;91.34;96361.75;4937329;28;20836;-39
2020/12/23 08:53:52;;;;;;;6.87;3.07;;;;;;;12.85;91.25;96407.34;4945478;28;20512;-40
2020/12/23 08:56:25;;;;;;;2.20;1.43;;;;;;;12.81;91.34;96411.09;4945834;28;20766;-45
2020/12/23 08:58:58;;;;;;;1.73;0.90;;;;;;;12.82;91.28;96410.16;4947032;28;20493;-40
2020/12/23 09:01:27;;;;;;;0.80;0.60;;;;;;;12.70;91.83;96387.56;4937443;28;20454;-44
2020/12/23 09:03:58;;;;;;;1.60;0.80;;;;;;;12.88;91.04;96412.31;4936949;28;20529;-44
2020/12/23 09:06:25;;;;;;;2.93;0.80;;;;;;;12.92;90.75;96405.94;4943096;28;20503;-45
2020/12/23 09:09:10;;;;;;;3.63;0.80;;;;;;;12.88;91.03;96405.31;4938972;28;21053;-44
2020/12/23 09:11:43;;;;;;;1.53;0.70;;;;;;;12.90;90.90;96406.03;4940322;28;20460;-39
2020/12/23 09:14:18;;;;;;;3.53;1.03;;;;;;;12.94;90.31;96399.69;4936882;28;20470;-44
2020/12/23 09:16:57;;;;;;;1.53;0.83;;;;;;;12.88;90.72;96387.03;4943114;28;20948;-45
2020/12/23 09:19:46;;;;;;;2.23;0.80;;;;;;;12.97;90.47;96401.25;4940597;28;20969;-45
2020/12/23 09:22:24;;;;;;;1.40;0.80;;;;;;;12.87;90.39;96381.91;4944622;28;20478;-44
2020/12/23 09:24:51;;;;;;;1.00;0.73;;;;;;;12.99;90.20;96400.16;4942145;28;20901;-40
2020/12/23 09:27:23;;;;;;;2.90;1.20;;;;;;;13.01;90.31;96402.66;4941747;28;21155;-44
2020/12/23 09:29:54;;;;;;;1.10;0.70;;;;;;;13.05;89.25;96391.03;4947726;28;20889;-44
2020/12/23 09:32:21;;;;;;;1.30;0.90;;;;;;;13.14;89.60;96406.03;4942367;28;20841;-39
2020/12/23 09:34:57;;;;;;;1.40;0.90;;;;;;;13.21;89.42;96404.63;4943043;28;20513;-44
2020/12/23 09:37:30;;;;;;;0.90;0.70;;;;;;;13.15;89.05;96386.78;4938802;28;20753;-45
2020/12/23 09:39:57;;;;;;;1.20;0.80;;;;;;;13.19;89.13;96399.50;4929137;28;20489;-40
2020/12/23 09:42:24;;;;;;;3.00;0.80;;;;;;;13.18;89.84;96390.00;4942955;28;20481;-43
2020/12/23 09:44:51;;;;;;;1.90;1.10;;;;;;;13.16;89.17;96414.56;4941679;28;20908;-47
2020/12/23 09:47:18;;;;;;;1.47;0.80;;;;;;;13.14;89.74;96392.97;4952991;28;20480;-45
2020/12/23 09:49:45;;;;;;;1.53;0.87;;;;;;;13.12;89.30;96389.63;4942264;28;20554;-44
2020/12/23 09:52:12;;;;;;;2.73;1.00;;;;;;;13.14;89.57;96395.56;4944426;28;20856;-45
2020/12/23 09:54:39;;;;;;;1.40;1.13;;;;;;;13.22;89.09;96386.22;4940519;28;21072;-44
2020/12/23 09:57:06;;;;;;;1.00;0.80;;;;;;;13.25;88.98;96380.75;4950733;28;20503;-44
2020/12/23 09:59:33;;;;;;;1.17;0.73;;;;;;;13.25;89.11;96380.75;4941806;28;20521;-45
2020/12/23 10:02:00;;;;;;;0.90;0.70;;;;;;;13.25;89.56;96379.91;4942843;28;21185;-40
2020/12/23 10:04:27;;;;;;;2.23;0.80;;;;;;;13.17;91.15;96377.03;4940044;28;20543;-39
2020/12/23 10:06:54;;;;;;;1.70;0.73;;;;;;;12.84;91.43;96324.69;4946810;28;20458;-40
2020/12/23 10:09:38;;;;;;;2.20;1.33;;;;;;;13.18;92.08;96370.84;4937626;28;20487;-39
2020/12/23 10:12:05;;;;;;;2.10;1.00;;;;;;;13.16;92.91;96367.53;4943270;28;20438;-46
2020/12/23 10:14:33;;;;;;;2.47;1.13;;;;;;;13.17;92.72;96356.97;4940409;28;20470;-44
2020/12/23 10:16:59;;;;;;;2.90;1.13;;;;;;;13.25;93.39;96361.59;4950300;28;20979;-44
2020/12/23 10:19:26;;;;;;;4.27;1.03;;;;;;;13.43;92.61;96357.59;4946645;28;20569;-45
2020/12/23 10:21:53;;;;;;;1.67;0.90;;;;;;;13.60;92.07;96352.72;4941137;28;20456;-45
2020/12/23 10:24:25;;;;;;;1.67;0.90;;;;;;;13.77;89.85;96348.78;4948167;28;20477;-40
2020/12/23 10:26:52;;;;;;;1.80;0.97;;;;;;;14.03;89.85;96340.56;4945302;28;20469;-44
2020/12/23 10:29:20;;;;;;;3.07;1.57;;;;;;;14.09;88.92;96336.63;4939712;28;20868;-45
2020/12/23 10:31:47;;;;;;;2.57;1.00;;;;;;;14.09;87.94;96334.00;4940744;28;20487;-40
2020/12/23 10:34:14;;;;;;;1.37;0.97;;;;;;;13.85;88.03;96328.09;4943590;28;20471;-45
2020/12/23 10:36:41;;;;;;;1.90;0.80;;;;;;;13.82;88.53;96323.94;4943560;28;20536;-45
2020/12/23 10:39:08;;;;;;;1.20;0.90;;;;;;;13.71;89.69;96325.75;4942763;28;20587;-44
2020/12/23 10:41:36;;;;;;;3.07;0.97;;;;;;;13.67;89.19;96308.59;4950139;28;20893;-44
2020/12/23 10:44:03;;;;;;;1.10;0.90;;;;;;;13.66;89.59;96304.34;4945302;28;20494;-44
2020/12/23 10:46:30;;;;;;;5.20;1.10;;;;;;;13.65;89.85;96315.75;4945393;28;20836;-45
2020/12/23 10:48:57;;;;;;;2.17;1.00;;;;;;;13.61;89.73;96299.47;4944832;28;20940;-39
2020/12/23 10:51:24;;;;;;;2.23;0.93;;;;;;;13.59;89.36;96301.38;4951893;28;20932;-39
2020/12/23 10:53:51;;;;;;;2.27;0.97;;;;;;;13.64;89.29;96298.41;4944366;28;20486;-39
2020/12/23 10:56:17;;;;;;;1.83;1.07;;;;;;;13.56;89.69;96290.34;4950366;28;20493;-39
2020/12/23 10:58:45;;;;;;;1.40;0.80;;;;;;;13.47;90.04;96291.03;4940618;28;20949;-42
2020/12/23 11:01:17;;;;;;;2.63;1.00;;;;;;;13.32;91.41;96281.75;4941537;28;20935;-42
2020/12/23 11:03:44;;;;;;;2.30;1.07;;;;;;;13.30;92.01;96278.44;4939683;28;20586;-41
2020/12/23 11:06:13;;;;;;;1.30;0.80;;;;;;;13.18;93.05;96285.47;4944459;28;20992;-42
2020/12/23 11:08:39;;;;;;;1.00;0.80;;;;;;;13.16;93.72;96273.44;4944510;28;21142;-42
2020/12/23 11:11:06;;;;;;;5.40;1.07;;;;;;;13.19;94.49;96275.84;4937287;28;20918;-43
2020/12/23 11:13:33;;;;;;;3.00;1.33;;;;;;;13.21;94.22;96277.38;4936811;28;20708;-42
2020/12/23 11:16:01;;;;;;;1.40;0.90;;;;;;;13.19;94.21;96283.69;4936998;28;20541;-41
2020/12/23 11:18:28;;;;;;;1.23;0.90;;;;;;;13.18;95.56;96268.94;4940996;28;21150;-41
2020/12/23 11:20:54;;;;;;;3.50;1.60;;;;;;;13.14;95.74;96270.13;4940859;28;20517;-42
2020/12/23 11:23:25;;;;;;;1.70;0.93;;;;;;;13.10;96.04;96266.06;4937600;28;20834;-42
2020/12/23 11:25:51;;;;;;;2.10;1.33;;;;;;;13.08;96.72;96262.75;4937228;28;20534;-42
2020/12/23 11:28:18;;;;;;;1.63;0.93;;;;;;;13.11;95.99;96265.13;4936439;28;21004;-42
2020/12/23 11:30:46;;;;;;;1.60;0.90;;;;;;;13.09;97.36;96259.19;4940622;28;20960;-42
2020/12/23 11:33:13;;;;;;;1.97;0.90;;;;;;;13.10;97.27;96253.00;4936110;28;20573;-42
2020/12/23 11:35:40;;;;;;;10.17;0.90;;;;;;;13.11;96.83;96252.06;4937127;28;21004;-41
2020/12/23 11:38:07;;;;;;;1.43;0.87;;;;;;;13.17;96.99;96251.59;4942607;28;20490;-41
2020/12/23 11:40:34;;;;;;;1.60;0.83;;;;;;;13.15;96.99;96250.88;4934863;28;20482;-42